Elizaville, Kentucky
Current Conditions -  °F | °C
As of 3:55 AM on Monday 22 Dec 2014 (Local Time) from KFGX Reporting Station
Overcast Overcast  
Wind Chill: 32°   Ceiling: 5000
Heat Index: 32°   Visibility: 10mi
Dew Point: 28°   Wind: 3mph
Humidity: 87%   Direction: 130°SE
Pressure: 30.05"   Gusts: NA
Location:  38.42°N, 83.83°W
Report Text: KFGX 220855Z AUTO 13003KT 10SM OVC050 00/M02 A3005 RMK AO2 T00001020
Loading
Personal Weather Stations






























Interactive Weather Map New forecast layout! Learn more

10-Day Weather Forecast

Advertisements
Track Severe Weather on mobile